Time;durP1;ratioP1;P1;durP2;ratioP2;P2;SDS_P1;SDS_P2;PMS_P1;PMS_P2;Temp;Humidity;BMP_temperature;BMP_pressure;BME280_temperature;BME280_humidity;BME280_pressure;Samples;Min_cycle;Max_cycle;Signal;HPM_P1;HPM_P2
2022/03/12 00:00:48;;;;;;;;;;;21.60;19.70;;;;;;450481;262;1162;-60
2022/03/12 00:02:47;;;;;;;;;;;21.70;19.70;;;;;;450480;263;1357;-60
2022/03/12 00:04:48;;;;;;;;;;;21.70;19.70;;;;;;450663;262;994;-60
2022/03/12 00:06:49;;;;;;;;;;;21.70;19.70;;;;;;450481;263;2218;-60
2022/03/12 00:08:55;;;;;;;;;;;21.60;19.70;;;;;;450617;262;943;-60
2022/03/12 00:10:52;;;;;;;;;;;21.60;19.70;;;;;;450518;262;1448;-60
2022/03/12 00:12:53;;;;;;;;;;;21.70;19.70;;;;;;450500;263;1299;-60
2022/03/12 00:14:55;;;;;;;;;;;21.60;19.80;;;;;;450669;262;973;-60
2022/03/12 00:16:56;;;;;;;;;;;21.60;19.80;;;;;;450410;263;951;-60
2022/03/12 00:18:58;;;;;;;;;;;21.60;19.80;;;;;;450471;262;1064;-60
2022/03/12 00:21:05;;;;;;;;;;;21.60;19.70;;;;;;450481;263;1080;-60
2022/03/12 00:23:00;;;;;;;;;;;21.60;19.70;;;;;;450593;262;1441;-60
2022/03/12 00:25:02;;;;;;;;;;;21.70;19.70;;;;;;450576;262;994;-59
2022/03/12 00:27:03;;;;;;;;;;;21.60;19.70;;;;;;450513;262;2221;-59
2022/03/12 00:29:04;;;;;;;;;;;21.70;19.70;;;;;;450453;263;1080;-59
2022/03/12 00:31:05;;;;;;;;;;;21.80;19.70;;;;;;450478;262;1119;-60
2022/03/12 00:33:07;;;;;;;;;;;21.70;19.70;;;;;;450446;263;1001;-60
2022/03/12 00:35:09;;;;;;;;;;;21.60;19.70;;;;;;450504;262;989;-60
2022/03/12 00:37:10;;;;;;;;;;;21.60;19.70;;;;;;450564;262;1088;-60
2022/03/12 00:39:11;;;;;;;;;;;21.60;19.70;;;;;;450479;263;976;-59
2022/03/12 00:41:12;;;;;;;;;;;21.60;19.70;;;;;;450470;263;1022;-59
2022/03/12 00:43:15;;;;;;;;;;;21.60;19.70;;;;;;450604;262;1189;-59
2022/03/12 00:45:15;;;;;;;;;;;21.70;19.70;;;;;;450442;263;1542;-59
2022/03/12 00:47:16;;;;;;;;;;;21.70;19.60;;;;;;450561;262;2202;-59
2022/03/12 00:49:18;;;;;;;;;;;21.70;19.70;;;;;;450438;262;979;-60
2022/03/12 00:51:19;;;;;;;;;;;21.70;19.70;;;;;;450566;262;1088;-60
2022/03/12 00:53:20;;;;;;;;;;;21.70;19.60;;;;;;450436;263;1093;-61
2022/03/12 00:55:22;;;;;;;;;;;21.60;19.60;;;;;;450588;262;1082;-59
2022/03/12 00:57:23;;;;;;;;;;;21.60;19.70;;;;;;450427;262;1228;-60
2022/03/12 00:59:24;;;;;;;;;;;21.60;19.70;;;;;;450531;262;1047;-60
2022/03/12 01:01:26;;;;;;;;;;;21.60;19.70;;;;;;450402;263;1076;-60
2022/03/12 01:03:27;;;;;;;;;;;21.60;19.70;;;;;;450455;262;1290;-59
2022/03/12 01:05:28;;;;;;;;;;;21.60;19.70;;;;;;450380;263;1329;-59
2022/03/12 01:07:30;;;;;;;;;;;21.70;19.70;;;;;;450434;263;2199;-60
2022/03/12 01:09:31;;;;;;;;;;;21.70;19.60;;;;;;450602;262;1371;-60
2022/03/12 01:11:34;;;;;;;;;;;21.70;19.60;;;;;;450438;263;1118;-59
2022/03/12 01:13:34;;;;;;;;;;;21.60;19.70;;;;;;450534;262;1388;-59
2022/03/12 01:15:35;;;;;;;;;;;21.60;19.70;;;;;;450471;263;1051;-59
2022/03/12 01:17:36;;;;;;;;;;;21.50;19.70;;;;;;450509;262;1089;-60
2022/03/12 01:19:38;;;;;;;;;;;21.60;19.70;;;;;;450491;263;973;-60
2022/03/12 01:21:39;;;;;;;;;;;21.60;19.70;;;;;;450557;262;1119;-60
2022/03/12 01:23:40;;;;;;;;;;;21.60;19.70;;;;;;450517;262;1093;-59
2022/03/12 01:25:41;;;;;;;;;;;21.60;19.70;;;;;;450455;263;1066;-60
2022/03/12 01:27:43;;;;;;;;;;;21.60;19.60;;;;;;450515;262;2206;-60
2022/03/12 01:29:45;;;;;;;;;;;21.60;19.60;;;;;;450542;263;1054;-59
2022/03/12 01:31:45;;;;;;;;;;;21.70;19.60;;;;;;450448;262;1027;-60
2022/03/12 01:33:47;;;;;;;;;;;21.60;19.60;;;;;;450524;262;1152;-59
2022/03/12 01:35:48;;;;;;;;;;;21.60;19.60;;;;;;450535;262;1000;-59
2022/03/12 01:37:49;;;;;;;;;;;21.60;19.70;;;;;;450402;262;1117;-59
2022/03/12 01:39:51;;;;;;;;;;;21.50;19.70;;;;;;450473;263;1088;-59
2022/03/12 01:41:52;;;;;;;;;;;21.50;19.70;;;;;;450552;262;967;-59
2022/03/12 01:43:53;;;;;;;;;;;21.60;19.70;;;;;;450488;263;1073;-59
2022/03/12 01:45:55;;;;;;;;;;;21.60;19.70;;;;;;450456;262;2194;-59
2022/03/12 01:47:56;;;;;;;;;;;21.60;19.60;;;;;;450481;263;1102;-59
2022/03/12 01:49:57;;;;;;;;;;;21.60;19.60;;;;;;450496;263;1185;-60
2022/03/12 01:51:59;;;;;;;;;;;21.70;19.60;;;;;;450452;263;989;-59
2022/03/12 01:54:00;;;;;;;;;;;21.60;19.60;;;;;;450451;262;1024;-59
2022/03/12 01:56:01;;;;;;;;;;;21.60;19.60;;;;;;450531;262;1003;-59
2022/03/12 01:58:03;;;;;;;;;;;21.50;19.60;;;;;;450606;262;962;-61
2022/03/12 02:00:04;;;;;;;;;;;21.50;19.60;;;;;;450466;263;1179;-60
2022/03/12 02:02:12;;;;;;;;;;;21.50;19.70;;;;;;450401;262;1182;-59
2022/03/12 02:04:08;;;;;;;;;;;21.60;19.70;;;;;;450543;263;1471;-59
2022/03/12 02:06:09;;;;;;;;;;;21.60;19.70;;;;;;450509;262;2128;-59
2022/03/12 02:08:13;;;;;;;;;;;21.70;19.60;;;;;;450549;262;1100;-59
2022/03/12 02:10:14;;;;;;;;;;;21.70;19.60;;;;;;450496;262;1461;-60
2022/03/12 02:12:14;;;;;;;;;;;21.70;19.50;;;;;;450445;263;1482;-59
2022/03/12 02:14:15;;;;;;;;;;;21.60;19.60;;;;;;450513;262;1198;-59
2022/03/12 02:16:16;;;;;;;;;;;21.60;19.60;;;;;;450463;263;1076;-60
2022/03/12 02:18:18;;;;;;;;;;;21.60;19.60;;;;;;450505;262;1056;-60
2022/03/12 02:20:19;;;;;;;;;;;21.60;19.60;;;;;;450511;262;1395;-60
2022/03/12 02:22:21;;;;;;;;;;;21.60;19.60;;;;;;450457;263;975;-60
2022/03/12 02:24:22;;;;;;;;;;;21.60;19.60;;;;;;450479;263;1006;-60
2022/03/12 02:26:23;;;;;;;;;;;21.60;19.60;;;;;;450439;263;2230;-60
2022/03/12 02:28:26;;;;;;;;;;;21.60;19.60;;;;;;450503;262;1035;-62
2022/03/12 02:30:26;;;;;;;;;;;21.70;19.60;;;;;;450454;262;1416;-59
2022/03/12 02:32:28;;;;;;;;;;;21.70;19.50;;;;;;450488;263;1137;-60
2022/03/12 02:34:29;;;;;;;;;;;21.70;19.60;;;;;;450495;263;1106;-60
2022/03/12 02:36:30;;;;;;;;;;;21.60;19.60;;;;;;450413;263;1005;-60
2022/03/12 02:38:31;;;;;;;;;;;21.60;19.60;;;;;;450596;262;1091;-59
2022/03/12 02:40:32;;;;;;;;;;;21.60;19.60;;;;;;450604;262;1107;-59
2022/03/12 02:42:36;;;;;;;;;;;21.60;19.60;;;;;;450510;262;1008;-59
2022/03/12 02:44:36;;;;;;;;;;;21.60;19.60;;;;;;450498;263;1440;-60
2022/03/12 02:46:37;;;;;;;;;;;21.60;19.60;;;;;;450461;262;2218;-59
2022/03/12 02:48:39;;;;;;;;;;;21.60;19.60;;;;;;450435;262;1131;-59
2022/03/12 02:50:43;;;;;;;;;;;21.60;19.60;;;;;;450611;262;1003;-60
2022/03/12 02:52:42;;;;;;;;;;;21.60;19.60;;;;;;450487;262;1488;-60
2022/03/12 02:54:43;;;;;;;;;;;21.70;19.50;;;;;;450435;263;1057;-59
2022/03/12 02:56:44;;;;;;;;;;;21.60;19.60;;;;;;450451;262;1022;-59
2022/03/12 02:58:46;;;;;;;;;;;21.60;19.60;;;;;;450461;262;996;-59
2022/03/12 03:00:47;;;;;;;;;;;21.50;19.60;;;;;;450437;263;1160;-60
2022/03/12 03:02:51;;;;;;;;;;;21.50;19.60;;;;;;450452;262;1111;-58
2022/03/12 03:04:50;;;;;;;;;;;21.60;19.60;;;;;;450477;263;1622;-60
2022/03/12 03:06:51;;;;;;;;;;;21.60;19.60;;;;;;450458;263;2162;-59
2022/03/12 03:08:53;;;;;;;;;;;21.60;19.60;;;;;;450609;262;1071;-59
2022/03/12 03:10:54;;;;;;;;;;;21.60;19.50;;;;;;450440;263;1052;-60
2022/03/12 03:12:56;;;;;;;;;;;21.60;19.50;;;;;;450572;262;1482;-60
2022/03/12 03:14:57;;;;;;;;;;;21.60;19.50;;;;;;450607;262;1204;-60
2022/03/12 03:16:58;;;;;;;;;;;21.60;19.50;;;;;;450557;262;983;-60
2022/03/12 03:18:59;;;;;;;;;;;21.70;19.60;;;;;;450500;263;977;-59
2022/03/12 03:21:01;;;;;;;;;;;21.60;19.50;;;;;;450558;262;1098;-60
2022/03/12 03:23:02;;;;;;;;;;;21.60;19.60;;;;;;450502;262;1217;-59
2022/03/12 03:25:04;;;;;;;;;;;21.60;19.60;;;;;;450477;263;1097;-60
2022/03/12 03:27:05;;;;;;;;;;;21.60;19.60;;;;;;450403;263;2148;-59
2022/03/12 03:29:07;;;;;;;;;;;21.60;19.60;;;;;;450465;262;1104;-60
2022/03/12 03:31:08;;;;;;;;;;;21.70;19.60;;;;;;450407;263;1141;-60
2022/03/12 03:33:09;;;;;;;;;;;21.70;19.60;;;;;;450426;263;1001;-60
2022/03/12 03:35:10;;;;;;;;;;;21.70;19.60;;;;;;450456;263;1144;-60
2022/03/12 03:37:12;;;;;;;;;;;21.60;19.60;;;;;;450476;262;1046;-60
2022/03/12 03:39:13;;;;;;;;;;;21.60;19.60;;;;;;450430;263;1084;-60
2022/03/12 03:41:14;;;;;;;;;;;21.60;19.60;;;;;;450473;262;1100;-60
2022/03/12 03:43:16;;;;;;;;;;;21.60;19.60;;;;;;450481;262;1123;-60
2022/03/12 03:45:19;;;;;;;;;;;21.60;19.60;;;;;;450485;262;1162;-59
2022/03/12 03:47:18;;;;;;;;;;;21.70;19.60;;;;;;450523;262;2202;-59
2022/03/12 03:49:20;;;;;;;;;;;21.70;19.60;;;;;;450480;262;1095;-59
2022/03/12 03:51:21;;;;;;;;;;;21.70;19.60;;;;;;450469;263;1249;-60
2022/03/12 03:53:22;;;;;;;;;;;21.70;19.60;;;;;;450503;262;945;-60
2022/03/12 03:55:25;;;;;;;;;;;21.70;19.60;;;;;;450517;262;1089;-59
2022/03/12 03:57:26;;;;;;;;;;;21.60;19.60;;;;;;450423;262;1286;-60
2022/03/12 03:59:28;;;;;;;;;;;21.70;19.60;;;;;;450510;262;1009;-59
2022/03/12 04:01:29;;;;;;;;;;;21.60;19.70;;;;;;450450;263;1200;-60
2022/03/12 04:03:32;;;;;;;;;;;21.60;19.70;;;;;;450463;263;985;-60
2022/03/12 04:05:32;;;;;;;;;;;21.60;19.70;;;;;;450480;262;1986;-60
2022/03/12 04:07:34;;;;;;;;;;;21.60;19.70;;;;;;450453;262;2140;-59
2022/03/12 04:09:35;;;;;;;;;;;21.60;19.70;;;;;;450498;262;1006;-60
2022/03/12 04:11:38;;;;;;;;;;;21.70;19.70;;;;;;450400;263;1049;-60
2022/03/12 04:13:38;;;;;;;;;;;21.70;19.70;;;;;;450498;262;2240;-59
2022/03/12 04:15:39;;;;;;;;;;;21.70;19.70;;;;;;450467;262;1484;-59
2022/03/12 04:17:41;;;;;;;;;;;21.60;19.70;;;;;;450424;263;1088;-59
2022/03/12 04:19:41;;;;;;;;;;;21.60;19.70;;;;;;450477;262;1503;-60
2022/03/12 04:21:43;;;;;;;;;;;21.70;19.70;;;;;;450459;262;986;-60
2022/03/12 04:23:44;;;;;;;;;;;21.60;19.70;;;;;;450491;263;974;-60
2022/03/12 04:25:46;;;;;;;;;;;21.60;19.80;;;;;;450575;262;1082;-59
2022/03/12 04:27:47;;;;;;;;;;;21.60;19.70;;;;;;450527;262;2207;-60
2022/03/12 04:29:49;;;;;;;;;;;21.60;19.70;;;;;;450489;263;1135;-60
2022/03/12 04:31:50;;;;;;;;;;;21.60;19.70;;;;;;450396;263;2174;-59
2022/03/12 04:33:51;;;;;;;;;;;21.60;19.70;;;;;;450589;262;1056;-59
2022/03/12 04:35:53;;;;;;;;;;;21.60;19.70;;;;;;450485;263;1047;-59
2022/03/12 04:37:54;;;;;;;;;;;21.60;19.70;;;;;;450621;262;1083;-60
2022/03/12 04:39:56;;;;;;;;;;;21.70;19.60;;;;;;450468;263;1069;-60
2022/03/12 04:41:57;;;;;;;;;;;21.70;19.70;;;;;;450400;263;2138;-59
2022/03/12 04:43:58;;;;;;;;;;;21.60;19.70;;;;;;450509;262;1017;-60
2022/03/12 04:46:00;;;;;;;;;;;21.60;19.70;;;;;;450401;263;1168;-60
2022/03/12 04:48:01;;;;;;;;;;;21.60;19.70;;;;;;450424;262;2206;-60
2022/03/12 04:50:02;;;;;;;;;;;21.50;19.70;;;;;;450458;263;1025;-59
2022/03/12 04:52:03;;;;;;;;;;;21.60;19.70;;;;;;450438;263;1067;-60
2022/03/12 04:54:05;;;;;;;;;;;21.60;19.70;;;;;;450474;262;1014;-60
2022/03/12 04:56:06;;;;;;;;;;;21.60;19.60;;;;;;450388;262;988;-60
2022/03/12 04:58:08;;;;;;;;;;;21.60;19.60;;;;;;450408;263;1297;-59
2022/03/12 05:00:09;;;;;;;;;;;21.70;19.60;;;;;;450482;262;1079;-60
2022/03/12 05:02:11;;;;;;;;;;;21.60;19.60;;;;;;450423;263;1290;-60
2022/03/12 05:04:13;;;;;;;;;;;21.70;19.60;;;;;;450471;262;1155;-58
2022/03/12 05:06:15;;;;;;;;;;;21.60;19.60;;;;;;450441;263;955;-59
2022/03/12 05:08:15;;;;;;;;;;;21.60;19.60;;;;;;450437;262;2140;-60
2022/03/12 05:10:17;;;;;;;;;;;21.60;19.60;;;;;;450414;262;1143;-59
2022/03/12 05:12:18;;;;;;;;;;;21.60;19.60;;;;;;450395;263;1079;-60
2022/03/12 05:14:19;;;;;;;;;;;21.60;19.60;;;;;;450482;262;957;-59
2022/03/12 05:16:21;;;;;;;;;;;21.70;19.60;;;;;;450425;263;1147;-59
2022/03/12 05:18:23;;;;;;;;;;;21.70;19.60;;;;;;450471;262;1421;-61
2022/03/12 05:20:23;;;;;;;;;;;21.70;19.60;;;;;;450482;263;1549;-59
2022/03/12 05:22:24;;;;;;;;;;;21.80;19.50;;;;;;450477;263;999;-60
2022/03/12 05:24:26;;;;;;;;;;;21.70;19.60;;;;;;450678;262;1068;-60
2022/03/12 05:26:27;;;;;;;;;;;21.60;19.60;;;;;;450561;262;1008;-60
2022/03/12 05:28:32;;;;;;;;;;;21.70;19.60;;;;;;450491;263;2140;-60
2022/03/12 05:30:30;;;;;;;;;;;21.60;19.60;;;;;;450462;263;1418;-59
2022/03/12 05:32:31;;;;;;;;;;;21.60;19.60;;;;;;450548;262;1162;-59
2022/03/12 05:34:33;;;;;;;;;;;21.60;19.60;;;;;;450503;263;968;-60
2022/03/12 05:36:36;;;;;;;;;;;21.60;19.60;;;;;;450464;263;1013;-59
2022/03/12 05:38:36;;;;;;;;;;;21.60;19.60;;;;;;450556;263;1507;-60
2022/03/12 05:40:38;;;;;;;;;;;21.70;19.60;;;;;;450533;262;983;-59
2022/03/12 05:42:38;;;;;;;;;;;21.70;19.60;;;;;;450503;262;1326;-60
2022/03/12 05:44:40;;;;;;;;;;;21.70;19.60;;;;;;450511;263;1038;-60
2022/03/12 05:46:41;;;;;;;;;;;21.70;19.60;;;;;;450411;261;1975;-60
2022/03/12 05:48:42;;;;;;;;;;;21.70;19.60;;;;;;450490;263;2210;-60
2022/03/12 05:50:44;;;;;;;;;;;21.70;19.60;;;;;;450526;262;1054;-59
2022/03/12 05:52:48;;;;;;;;;;;21.60;19.60;;;;;;450455;262;1088;-60
2022/03/12 05:54:48;;;;;;;;;;;21.60;19.60;;;;;;450600;262;1441;-60
2022/03/12 05:56:48;;;;;;;;;;;21.60;19.60;;;;;;450364;262;1430;-60
2022/03/12 05:58:50;;;;;;;;;;;21.60;19.60;;;;;;450555;262;994;-59
2022/03/12 06:00:55;;;;;;;;;;;21.70;19.60;;;;;;450489;262;1084;-60
2022/03/12 06:02:53;;;;;;;;;;;21.60;19.60;;;;;;450641;262;1409;-60
2022/03/12 06:04:54;;;;;;;;;;;21.60;19.60;;;;;;450437;263;2565;-60
2022/03/12 06:06:55;;;;;;;;;;;21.60;19.60;;;;;;450479;262;1209;-60
2022/03/12 06:08:57;;;;;;;;;;;21.60;19.70;;;;;;450554;262;2210;-60
2022/03/12 06:10:58;;;;;;;;;;;21.60;19.60;;;;;;450393;263;2221;-60
2022/03/12 06:13:00;;;;;;;;;;;21.60;19.60;;;;;;450532;262;1162;-60
2022/03/12 06:15:04;;;;;;;;;;;21.60;19.60;;;;;;450441;262;1903;-60
2022/03/12 06:17:02;;;;;;;;;;;21.70;19.60;;;;;;450441;262;2114;-60
2022/03/12 06:19:03;;;;;;;;;;;21.70;19.60;;;;;;450491;262;1094;-60
2022/03/12 06:21:04;;;;;;;;;;;21.70;19.60;;;;;;450481;262;1106;-60
2022/03/12 06:23:06;;;;;;;;;;;21.60;19.60;;;;;;450462;262;1106;-60
2022/03/12 06:25:07;;;;;;;;;;;21.60;19.60;;;;;;450532;262;987;-59
2022/03/12 06:27:09;;;;;;;;;;;21.60;19.70;;;;;;450430;263;968;-60
2022/03/12 06:29:12;;;;;;;;;;;21.50;19.60;;;;;;450479;262;2139;-60
2022/03/12 06:31:12;;;;;;;;;;;21.60;19.70;;;;;;450481;262;1870;-60
2022/03/12 06:33:14;;;;;;;;;;;21.60;19.70;;;;;;450422;262;2279;-60
2022/03/12 06:35:14;;;;;;;;;;;21.60;19.70;;;;;;450486;262;2354;-60
2022/03/12 06:37:15;;;;;;;;;;;21.60;19.60;;;;;;450493;262;967;-60
2022/03/12 06:39:16;;;;;;;;;;;21.60;19.60;;;;;;450468;262;1145;-60
2022/03/12 06:41:20;;;;;;;;;;;21.60;19.50;;;;;;450459;263;1127;-60
2022/03/12 06:43:19;;;;;;;;;;;21.60;19.60;;;;;;450577;262;2225;-60
2022/03/12 06:45:21;;;;;;;;;;;21.60;19.60;;;;;;450416;263;980;-60
2022/03/12 06:47:24;;;;;;;;;;;21.60;19.60;;;;;;450352;262;1719;-61
2022/03/12 06:49:24;;;;;;;;;;;21.60;19.70;;;;;;450552;262;2303;-60
2022/03/12 06:51:25;;;;;;;;;;;21.50;19.70;;;;;;450451;262;1057;-60
2022/03/12 06:53:26;;;;;;;;;;;21.50;19.70;;;;;;450372;263;1039;-60
2022/03/12 06:55:28;;;;;;;;;;;21.50;19.70;;;;;;450392;263;1065;-60
2022/03/12 06:57:29;;;;;;;;;;;21.50;19.60;;;;;;450384;263;1087;-60
2022/03/12 06:59:30;;;;;;;;;;;21.50;19.60;;;;;;450471;262;1146;-60
2022/03/12 07:01:32;;;;;;;;;;;21.50;19.70;;;;;;450370;263;992;-60
2022/03/12 07:03:33;;;;;;;;;;;21.50;19.60;;;;;;450490;262;1234;-60
2022/03/12 07:05:35;;;;;;;;;;;21.50;19.60;;;;;;450395;263;1092;-60
2022/03/12 07:07:36;;;;;;;;;;;21.50;19.70;;;;;;450456;262;1051;-60
2022/03/12 07:09:37;;;;;;;;;;;21.50;19.70;;;;;;450508;262;2135;-59
2022/03/12 07:11:39;;;;;;;;;;;21.50;19.60;;;;;;450411;262;1269;-60
2022/03/12 07:13:40;;;;;;;;;;;21.50;19.60;;;;;;450430;263;1457;-59
2022/03/12 07:15:41;;;;;;;;;;;21.50;19.70;;;;;;450337;262;1083;-59
2022/03/12 07:17:42;;;;;;;;;;;21.50;19.60;;;;;;450425;263;1385;-59
2022/03/12 07:19:43;;;;;;;;;;;21.40;19.60;;;;;;450473;262;1194;-60
2022/03/12 07:21:45;;;;;;;;;;;21.50;19.60;;;;;;450404;263;1230;-60
2022/03/12 07:23:46;;;;;;;;;;;21.50;19.70;;;;;;450540;262;993;-60
2022/03/12 07:25:47;;;;;;;;;;;21.50;19.70;;;;;;450397;263;1075;-60
2022/03/12 07:27:49;;;;;;;;;;;21.40;19.70;;;;;;450393;262;1007;-60
2022/03/12 07:29:50;;;;;;;;;;;21.40;19.70;;;;;;450434;262;2217;-60
2022/03/12 07:31:52;;;;;;;;;;;21.40;19.70;;;;;;450384;262;970;-60
2022/03/12 07:33:53;;;;;;;;;;;21.40;19.80;;;;;;450464;262;1151;-60
2022/03/12 07:35:54;;;;;;;;;;;21.40;19.70;;;;;;450391;263;1147;-60
2022/03/12 07:37:57;;;;;;;;;;;21.50;19.70;;;;;;450504;262;1066;-60
2022/03/12 07:39:57;;;;;;;;;;;21.50;19.70;;;;;;450517;262;2380;-60
2022/03/12 07:41:58;;;;;;;;;;;21.40;19.70;;;;;;450433;262;2317;-60
2022/03/12 07:43:59;;;;;;;;;;;21.50;19.70;;;;;;450448;262;1320;-60
2022/03/12 07:46:01;;;;;;;;;;;21.50;19.70;;;;;;450360;262;1072;-60
2022/03/12 07:48:02;;;;;;;;;;;21.60;19.70;;;;;;450443;261;2174;-60
2022/03/12 07:50:05;;;;;;;;;;;21.60;19.70;;;;;;450429;263;1307;-60
2022/03/12 07:52:05;;;;;;;;;;;21.60;19.80;;;;;;450553;262;2039;-60
2022/03/12 07:54:07;;;;;;;;;;;21.50;19.80;;;;;;450521;262;954;-60
2022/03/12 07:56:07;;;;;;;;;;;21.40;19.90;;;;;;450425;262;2297;-60
2022/03/12 07:58:09;;;;;;;;;;;21.40;19.90;;;;;;450559;262;1252;-60
2022/03/12 08:00:10;;;;;;;;;;;21.40;19.90;;;;;;450469;262;1007;-60
2022/03/12 08:02:11;;;;;;;;;;;21.60;19.90;;;;;;450520;262;969;-60
2022/03/12 08:04:13;;;;;;;;;;;21.50;19.90;;;;;;450431;263;1205;-60
2022/03/12 08:06:16;;;;;;;;;;;21.50;19.90;;;;;;450427;262;1065;-60
2022/03/12 08:08:15;;;;;;;;;;;21.50;19.90;;;;;;450422;262;2214;-60
2022/03/12 08:10:17;;;;;;;;;;;21.50;20.00;;;;;;450395;263;1490;-60
2022/03/12 08:12:19;;;;;;;;;;;21.40;20.00;;;;;;450406;263;1141;-60
2022/03/12 08:14:22;;;;;;;;;;;21.30;20.10;;;;;;450431;263;1446;-59
2022/03/12 08:16:21;;;;;;;;;;;21.40;20.10;;;;;;450494;262;2146;-60
2022/03/12 08:18:23;;;;;;;;;;;21.40;20.10;;;;;;450398;263;988;-60
2022/03/12 08:20:24;;;;;;;;;;;21.10;20.30;;;;;;450429;262;1260;-60
2022/03/12 08:22:25;;;;;;;;;;;21.10;20.30;;;;;;450424;262;983;-60
2022/03/12 08:24:26;;;;;;;;;;;20.80;20.60;;;;;;450492;262;1051;-60
2022/03/12 08:26:27;;;;;;;;;;;20.70;20.60;;;;;;450555;262;1105;-60
2022/03/12 08:28:32;;;;;;;;;;;20.90;20.60;;;;;;450485;262;2198;-60
2022/03/12 08:30:30;;;;;;;;;;;20.90;20.60;;;;;;450524;262;2255;-60
2022/03/12 08:32:34;;;;;;;;;;;20.80;20.60;;;;;;450544;262;1107;-60
2022/03/12 08:34:33;;;;;;;;;;;20.80;20.70;;;;;;450741;262;2163;-60
2022/03/12 08:36:34;;;;;;;;;;;20.70;20.70;;;;;;450660;262;1387;-60
2022/03/12 08:38:35;;;;;;;;;;;20.80;20.70;;;;;;450498;262;957;-60
2022/03/12 08:40:37;;;;;;;;;;;20.80;20.60;;;;;;450444;262;1013;-59
2022/03/12 08:42:38;;;;;;;;;;;20.80;20.70;;;;;;450408;263;1296;-61
2022/03/12 08:44:39;;;;;;;;;;;20.80;20.70;;;;;;450587;262;1010;-60
2022/03/12 08:46:42;;;;;;;;;;;20.90;20.80;;;;;;450367;263;1029;-60
2022/03/12 08:48:43;;;;;;;;;;;20.90;20.80;;;;;;450344;262;2132;-60
2022/03/12 08:50:44;;;;;;;;;;;20.90;20.80;;;;;;450425;262;1206;-60
2022/03/12 08:52:46;;;;;;;;;;;20.80;20.80;;;;;;450381;261;1331;-60
2022/03/12 08:54:47;;;;;;;;;;;20.90;20.90;;;;;;450458;262;1830;-60
2022/03/12 08:56:48;;;;;;;;;;;20.80;20.90;;;;;;450366;263;1071;-60
2022/03/12 08:58:50;;;;;;;;;;;20.80;20.90;;;;;;450624;262;1091;-60
2022/03/12 09:00:52;;;;;;;;;;;20.80;20.90;;;;;;450377;263;1074;-60
2022/03/12 09:02:53;;;;;;;;;;;20.80;21.00;;;;;;450737;262;1074;-60
2022/03/12 09:04:54;;;;;;;;;;;20.70;21.00;;;;;;450419;262;1212;-60
2022/03/12 09:06:55;;;;;;;;;;;20.70;20.90;;;;;;450544;262;1107;-60
2022/03/12 09:08:58;;;;;;;;;;;20.60;21.10;;;;;;450521;262;2206;-60
2022/03/12 09:10:59;;;;;;;;;;;20.70;21.10;;;;;;450428;262;1391;-60
2022/03/12 09:12:59;;;;;;;;;;;20.60;21.10;;;;;;450443;262;2243;-60
2022/03/12 09:15:01;;;;;;;;;;;20.70;21.20;;;;;;450400;263;1084;-60
2022/03/12 09:17:02;;;;;;;;;;;20.60;21.20;;;;;;450269;263;1040;-60
2022/03/12 09:19:04;;;;;;;;;;;20.60;21.20;;;;;;450572;262;1077;-60
2022/03/12 09:21:05;;;;;;;;;;;20.60;21.20;;;;;;450455;262;1224;-60
2022/03/12 09:23:07;;;;;;;;;;;20.60;21.20;;;;;;450462;262;1040;-60
2022/03/12 09:25:13;;;;;;;;;;;20.70;21.20;;;;;;450398;263;2384;-60
2022/03/12 09:27:10;;;;;;;;;;;20.70;21.20;;;;;;450411;263;1979;-60
2022/03/12 09:29:11;;;;;;;;;;;20.70;21.20;;;;;;450413;262;2139;-59
2022/03/12 09:31:13;;;;;;;;;;;20.70;21.20;;;;;;450495;262;991;-60
2022/03/12 09:33:14;;;;;;;;;;;20.70;21.30;;;;;;450430;262;1366;-60
2022/03/12 09:35:16;;;;;;;;;;;20.60;21.30;;;;;;450377;263;1166;-60
2022/03/12 09:37:16;;;;;;;;;;;20.50;21.40;;;;;;450413;262;1083;-60
2022/03/12 09:39:18;;;;;;;;;;;20.60;21.40;;;;;;450406;263;995;-60
2022/03/12 09:41:19;;;;;;;;;;;20.70;21.30;;;;;;450464;262;979;-60
2022/03/12 09:43:20;;;;;;;;;;;20.60;21.40;;;;;;450508;262;1067;-60
2022/03/12 09:45:22;;;;;;;;;;;20.70;21.30;;;;;;450597;262;1121;-60
2022/03/12 09:47:23;;;;;;;;;;;20.70;21.40;;;;;;450425;262;1027;-60
2022/03/12 09:49:24;;;;;;;;;;;20.70;21.30;;;;;;450509;262;2244;-60
2022/03/12 09:51:28;;;;;;;;;;;20.70;21.40;;;;;;450521;262;1188;-60
2022/03/12 09:53:27;;;;;;;;;;;20.70;21.40;;;;;;450387;262;1835;-60
2022/03/12 09:55:29;;;;;;;;;;;21.00;21.30;;;;;;450539;262;1037;-60
2022/03/12 09:57:30;;;;;;;;;;;21.10;21.20;;;;;;450418;262;1098;-60
2022/03/12 09:59:31;;;;;;;;;;;21.20;21.20;;;;;;450511;262;1056;-60
2022/03/12 10:01:33;;;;;;;;;;;21.30;21.20;;;;;;450361;263;1096;-60
2022/03/12 10:03:34;;;;;;;;;;;21.30;21.10;;;;;;450680;262;1053;-60
2022/03/12 10:05:35;;;;;;;;;;;21.40;21.10;;;;;;450626;262;1174;-60
2022/03/12 10:07:37;;;;;;;;;;;21.40;21.10;;;;;;450333;262;1120;-60
2022/03/12 10:09:38;;;;;;;;;;;21.50;21.10;;;;;;450428;262;2210;-60
2022/03/12 10:11:41;;;;;;;;;;;21.50;21.10;;;;;;450418;263;1141;-60
2022/03/12 10:13:41;;;;;;;;;;;21.50;21.20;;;;;;450509;262;2278;-61
2022/03/12 10:15:43;;;;;;;;;;;21.50;21.20;;;;;;450456;262;1085;-60
2022/03/12 10:17:44;;;;;;;;;;;21.50;21.20;;;;;;450407;263;1020;-60
2022/03/12 10:19:45;;;;;;;;;;;21.60;21.20;;;;;;450376;262;1184;-60
2022/03/12 10:21:47;;;;;;;;;;;21.50;21.20;;;;;;450426;262;1261;-60
2022/03/12 10:23:48;;;;;;;;;;;21.60;21.20;;;;;;450425;263;1087;-60
2022/03/12 10:25:49;;;;;;;;;;;21.50;21.40;;;;;;450417;263;1053;-60
2022/03/12 10:27:51;;;;;;;;;;;21.30;21.50;;;;;;450400;262;1099;-60
2022/03/12 10:29:52;;;;;;;;;;;21.20;21.60;;;;;;450397;263;2194;-60
2022/03/12 10:31:53;;;;;;;;;;;21.20;21.60;;;;;;450412;262;1079;-60
2022/03/12 10:33:55;;;;;;;;;;;21.30;21.50;;;;;;450387;262;1008;-60
2022/03/12 10:35:56;;;;;;;;;;;21.40;21.50;;;;;;450346;263;1392;-60
2022/03/12 10:37:58;;;;;;;;;;;21.50;21.50;;;;;;450405;262;1174;-60
2022/03/12 10:39:59;;;;;;;;;;;21.50;21.40;;;;;;450449;262;2678;-61
2022/03/12 10:42:00;;;;;;;;;;;21.60;21.30;;;;;;450484;262;1112;-60
2022/03/12 10:44:01;;;;;;;;;;;21.70;21.40;;;;;;450432;263;958;-60
2022/03/12 10:46:02;;;;;;;;;;;21.60;21.30;;;;;;450547;262;1008;-60
2022/03/12 10:48:04;;;;;;;;;;;21.70;21.40;;;;;;450461;262;967;-60
2022/03/12 10:50:05;;;;;;;;;;;21.70;21.50;;;;;;450470;262;2206;-60
2022/03/12 10:52:10;;;;;;;;;;;21.70;21.40;;;;;;450388;262;1308;-60
2022/03/12 10:54:08;;;;;;;;;;;21.60;21.50;;;;;;450478;262;1906;-60
2022/03/12 10:56:09;;;;;;;;;;;21.60;21.40;;;;;;450445;263;1090;-60
2022/03/12 10:58:12;;;;;;;;;;;21.70;21.50;;;;;;450632;262;1096;-60
2022/03/12 11:00:12;;;;;;;;;;;21.70;21.40;;;;;;450444;263;1886;-60
2022/03/12 11:02:13;;;;;;;;;;;21.80;21.50;;;;;;450333;263;1118;-60
2022/03/12 11:04:15;;;;;;;;;;;21.80;21.50;;;;;;450532;262;1033;-60
2022/03/12 11:06:16;;;;;;;;;;;21.70;21.40;;;;;;450433;263;1225;-60
2022/03/12 11:08:18;;;;;;;;;;;21.70;21.40;;;;;;450399;262;1064;-60
2022/03/12 11:10:19;;;;;;;;;;;21.70;21.50;;;;;;450435;263;2140;-60
2022/03/12 11:12:20;;;;;;;;;;;21.70;21.50;;;;;;450397;263;1086;-60
2022/03/12 11:14:22;;;;;;;;;;;21.70;21.50;;;;;;450469;262;1080;-60
2022/03/12 11:16:24;;;;;;;;;;;21.70;21.50;;;;;;450366;263;1646;-60
2022/03/12 11:18:24;;;;;;;;;;;21.80;21.50;;;;;;450437;262;1714;-60
2022/03/12 11:20:28;;;;;;;;;;;21.90;21.40;;;;;;450436;262;1009;-60
2022/03/12 11:22:27;;;;;;;;;;;21.20;22.00;;;;;;450451;263;2260;-60
2022/03/12 11:24:28;;;;;;;;;;;20.80;22.30;;;;;;450577;262;1103;-60
2022/03/12 11:26:30;;;;;;;;;;;20.60;22.40;;;;;;450503;262;1078;-60
2022/03/12 11:28:31;;;;;;;;;;;20.60;22.50;;;;;;450445;263;982;-60
2022/03/12 11:30:33;;;;;;;;;;;20.50;22.50;;;;;;450593;262;2202;-60
2022/03/12 11:32:35;;;;;;;;;;;20.40;22.60;;;;;;450387;263;2055;-60
2022/03/12 11:34:38;;;;;;;;;;;20.40;22.70;;;;;;450491;262;2378;-60
2022/03/12 11:36:36;;;;;;;;;;;20.30;22.70;;;;;;450395;262;2131;-60
2022/03/12 11:38:38;;;;;;;;;;;20.30;22.80;;;;;;450469;262;1068;-60
2022/03/12 11:40:39;;;;;;;;;;;20.20;22.80;;;;;;450477;262;1093;-60
2022/03/12 11:42:41;;;;;;;;;;;20.20;22.80;;;;;;450432;263;1359;-60
2022/03/12 11:44:44;;;;;;;;;;;20.20;22.80;;;;;;450476;263;1127;-60
2022/03/12 11:46:44;;;;;;;;;;;20.20;22.90;;;;;;450397;263;1979;-60
2022/03/12 11:48:45;;;;;;;;;;;20.20;22.90;;;;;;450473;262;1038;-60
2022/03/12 11:50:46;;;;;;;;;;;20.20;23.00;;;;;;450469;262;2151;-60
2022/03/12 11:52:48;;;;;;;;;;;20.20;23.00;;;;;;450446;262;1295;-60
2022/03/12 11:54:49;;;;;;;;;;;20.20;23.00;;;;;;450592;262;1050;-60
2022/03/12 11:56:51;;;;;;;;;;;20.10;23.00;;;;;;450414;262;1105;-60